Time;durP1;ratioP1;P1;durP2;ratioP2;P2;SDS_P1;SDS_P2;PMS_P1;PMS_P2;Temp;Humidity;BMP_temperature;BMP_pressure;BME280_temperature;BME280_humidity;BME280_pressure;Samples;Min_cycle;Max_cycle;Signal;HPM_P1;HPM_P2
2024/03/11 00:02:23;;;;;;;7.47;4.80;;;;;;;;;;750214;186;918668;-61
2024/03/11 00:04:47;;;;;;;11.50;6.63;;;;;;;;;;748625;186;918683;-61
2024/03/11 00:07:15;;;;;;;7.27;5.97;;;;;;;;;;752969;186;918529;-61
2024/03/11 00:09:44;;;;;;;16.03;7.13;;;;;;;;;;749737;186;940963;-60
2024/03/11 00:12:07;;;;;;;10.60;6.23;;;;;;;;;;749181;186;918924;-61
2024/03/11 00:14:33;;;;;;;10.60;5.10;;;;;;;;;;753147;185;937032;-60
2024/03/11 00:16:58;;;;;;;15.73;5.50;;;;;;;;;;752024;186;918866;-62
2024/03/11 00:19:24;;;;;;;11.93;5.75;;;;;;;;;;751118;186;918990;-61
2024/03/11 00:21:53;;;;;;;14.13;6.50;;;;;;;;;;751243;186;919206;-60
2024/03/11 00:24:19;;;;;;;11.40;5.07;;;;;;;;;;752015;186;919237;-60
2024/03/11 00:26:45;;;;;;;8.17;5.40;;;;;;;;;;750797;184;918937;-62
2024/03/11 00:29:11;;;;;;;11.37;6.63;;;;;;;;;;746880;186;920442;-62
2024/03/11 00:31:37;;;;;;;13.50;5.33;;;;;;;;;;755423;186;920843;-61
2024/03/11 00:34:03;;;;;;;14.13;5.33;;;;;;;;;;750051;186;921317;-58
2024/03/11 00:36:28;;;;;;;17.50;6.47;;;;;;;;;;752300;186;919419;-59
2024/03/11 00:38:54;;;;;;;13.67;5.83;;;;;;;;;;758348;186;820542;-59
2024/03/11 00:41:21;;;;;;;9.47;5.50;;;;;;;;;;750053;184;919523;-59
2024/03/11 00:43:46;;;;;;;5.57;4.60;;;;;;;;;;751775;186;777127;-59
2024/03/11 00:46:12;;;;;;;17.00;6.73;;;;;;;;;;758219;186;818793;-59
2024/03/11 00:48:37;;;;;;;8.13;5.67;;;;;;;;;;751738;183;919603;-61
2024/03/11 00:51:04;;;;;;;11.70;5.77;;;;;;;;;;751122;185;916611;-62
2024/03/11 00:53:29;;;;;;;9.83;5.07;;;;;;;;;;751928;186;915997;-61
2024/03/11 00:55:55;;;;;;;8.10;4.80;;;;;;;;;;756276;186;816484;-61
2024/03/11 00:58:21;;;;;;;11.60;5.73;;;;;;;;;;747885;183;916338;-61
2024/03/11 01:00:47;;;;;;;8.73;5.70;;;;;;;;;;748691;183;919598;-61
2024/03/11 01:03:13;;;;;;;10.33;6.17;;;;;;;;;;754214;186;906397;-61
2024/03/11 01:05:39;;;;;;;9.87;5.93;;;;;;;;;;754618;184;968929;-59
2024/03/11 01:08:05;;;;;;;8.17;4.90;;;;;;;;;;746432;186;1017382;-62
2024/03/11 01:10:30;;;;;;;7.63;4.73;;;;;;;;;;753093;185;824080;-62
2024/03/11 01:12:56;;;;;;;12.30;4.47;;;;;;;;;;751081;183;816087;-59
2024/03/11 01:15:22;;;;;;;9.17;4.17;;;;;;;;;;746312;184;893646;-62
2024/03/11 01:17:48;;;;;;;10.40;4.67;;;;;;;;;;753461;183;918519;-61
2024/03/11 01:20:15;;;;;;;17.00;5.20;;;;;;;;;;750828;186;816950;-60
2024/03/11 01:22:40;;;;;;;11.03;4.90;;;;;;;;;;736662;188;919220;-59
2024/03/11 01:25:06;;;;;;;12.63;4.50;;;;;;;;;;745140;185;815981;-60
2024/03/11 01:27:32;;;;;;;19.37;6.10;;;;;;;;;;755195;185;874760;-61
2024/03/11 01:29:57;;;;;;;10.70;4.77;;;;;;;;;;751392;186;920030;-59
2024/03/11 01:32:23;;;;;;;14.00;8.10;;;;;;;;;;749804;186;919111;-62
2024/03/11 01:34:50;;;;;;;20.27;8.10;;;;;;;;;;757282;186;917648;-62
2024/03/11 01:37:15;;;;;;;12.83;4.43;;;;;;;;;;749001;186;1013980;-61
2024/03/11 01:39:43;;;;;;;7.77;4.63;;;;;;;;;;747720;185;916398;-61
2024/03/11 01:42:14;;;;;;;11.40;5.60;;;;;;;;;;753553;183;919852;-62
2024/03/11 01:44:36;;;;;;;7.30;4.50;;;;;;;;;;748871;186;1020917;-60
2024/03/11 01:47:04;;;;;;;11.70;6.10;;;;;;;;;;752011;186;919569;-61
2024/03/11 01:49:28;;;;;;;12.93;4.40;;;;;;;;;;752039;186;877680;-61
2024/03/11 01:51:54;;;;;;;8.53;4.40;;;;;;;;;;754789;183;917063;-61
2024/03/11 01:54:20;;;;;;;9.97;4.17;;;;;;;;;;752509;186;820319;-61
2024/03/11 01:56:49;;;;;;;9.63;3.63;;;;;;;;;;751403;186;816646;-60
2024/03/11 01:59:11;;;;;;;11.50;4.87;;;;;;;;;;755821;186;916957;-59
2024/03/11 02:01:38;;;;;;;8.77;4.83;;;;;;;;;;750855;183;915590;-59
2024/03/11 02:04:03;;;;;;;9.87;4.70;;;;;;;;;;754455;186;810889;-59
2024/03/11 02:06:29;;;;;;;6.67;3.87;;;;;;;;;;748385;186;920414;-61
2024/03/11 02:08:55;;;;;;;11.00;4.57;;;;;;;;;;751650;186;920194;-61
2024/03/11 02:11:21;;;;;;;11.33;5.27;;;;;;;;;;749538;186;919876;-62
2024/03/11 02:13:46;;;;;;;11.80;4.63;;;;;;;;;;749461;183;918602;-61
2024/03/11 02:16:12;;;;;;;12.93;5.87;;;;;;;;;;756842;186;873590;-59
2024/03/11 02:18:39;;;;;;;9.47;5.27;;;;;;;;;;749866;183;879710;-59
2024/03/11 02:21:04;;;;;;;7.97;4.23;;;;;;;;;;747135;186;917947;-59
2024/03/11 02:23:30;;;;;;;10.53;4.60;;;;;;;;;;755756;183;841054;-60
2024/03/11 02:25:56;;;;;;;10.10;3.83;;;;;;;;;;750140;183;921717;-59
2024/03/11 02:28:22;;;;;;;13.60;4.63;;;;;;;;;;747332;186;858229;-61
2024/03/11 02:30:47;;;;;;;9.60;4.43;;;;;;;;;;751676;186;897849;-59
2024/03/11 02:33:13;;;;;;;10.00;4.70;;;;;;;;;;749462;183;916982;-61
2024/03/11 02:35:39;;;;;;;10.73;4.63;;;;;;;;;;750961;185;920692;-61
2024/03/11 02:38:05;;;;;;;14.60;4.73;;;;;;;;;;755055;185;915533;-60
2024/03/11 02:40:31;;;;;;;7.97;3.70;;;;;;;;;;755926;183;919179;-59
2024/03/11 02:42:57;;;;;;;13.03;4.00;;;;;;;;;;752991;183;918306;-59
2024/03/11 02:45:25;;;;;;;10.37;4.77;;;;;;;;;;747026;185;914566;-59
2024/03/11 02:47:49;;;;;;;15.40;4.00;;;;;;;;;;755546;186;915940;-60
2024/03/11 02:50:14;;;;;;;13.33;3.87;;;;;;;;;;751928;186;914685;-61
2024/03/11 02:52:41;;;;;;;6.97;3.83;;;;;;;;;;750499;184;919620;-61
2024/03/11 02:55:06;;;;;;;11.23;4.75;;;;;;;;;;756454;184;918941;-61
2024/03/11 02:57:32;;;;;;;9.80;4.10;;;;;;;;;;748868;184;926827;-59
2024/03/11 02:59:58;;;;;;;8.60;4.00;;;;;;;;;;748237;186;931162;-58
2024/03/11 03:02:24;;;;;;;11.97;4.40;;;;;;;;;;750259;186;920567;-61
2024/03/11 03:04:49;;;;;;;13.00;3.87;;;;;;;;;;753338;183;925052;-59
2024/03/11 03:07:15;;;;;;;10.33;4.13;;;;;;;;;;749920;186;919033;-59
2024/03/11 03:09:41;;;;;;;9.53;4.33;;;;;;;;;;749185;186;919177;-61
2024/03/11 03:12:09;;;;;;;14.63;4.50;;;;;;;;;;756522;186;919625;-59
2024/03/11 03:14:33;;;;;;;12.40;4.10;;;;;;;;;;749638;186;919510;-59
2024/03/11 03:16:59;;;;;;;14.97;4.33;;;;;;;;;;750927;186;895879;-59
2024/03/11 03:19:25;;;;;;;15.43;4.13;;;;;;;;;;753323;186;918793;-59
2024/03/11 03:21:51;;;;;;;10.50;4.27;;;;;;;;;;750735;186;919065;-59
2024/03/11 03:24:16;;;;;;;8.80;4.50;;;;;;;;;;750443;186;917779;-61
2024/03/11 03:26:43;;;;;;;9.60;5.70;;;;;;;;;;749848;186;819939;-61
2024/03/11 03:29:08;;;;;;;11.07;5.73;;;;;;;;;;756348;186;817394;-61
2024/03/11 03:31:34;;;;;;;12.03;4.37;;;;;;;;;;750723;186;864544;-61
2024/03/11 03:34:00;;;;;;;12.50;5.73;;;;;;;;;;752531;186;918995;-60
2024/03/11 03:36:26;;;;;;;7.37;4.53;;;;;;;;;;752832;186;816551;-58
2024/03/11 03:38:51;;;;;;;11.40;5.30;;;;;;;;;;751916;186;922776;-58
2024/03/11 03:41:17;;;;;;;11.75;5.82;;;;;;;;;;749816;186;919453;-60
2024/03/11 03:43:43;;;;;;;12.57;5.17;;;;;;;;;;754432;186;817921;-59
2024/03/11 03:46:09;;;;;;;9.90;5.37;;;;;;;;;;750753;184;917784;-61
2024/03/11 03:48:35;;;;;;;13.60;5.13;;;;;;;;;;753097;185;899533;-59
2024/03/11 03:51:03;;;;;;;15.90;6.00;;;;;;;;;;750307;183;930378;-59
2024/03/11 03:53:26;;;;;;;11.23;5.73;;;;;;;;;;748996;186;918664;-59
2024/03/11 03:55:53;;;;;;;13.20;5.17;;;;;;;;;;754451;183;821635;-60
2024/03/11 03:58:19;;;;;;;15.10;5.00;;;;;;;;;;753296;186;916448;-58
2024/03/11 04:00:44;;;;;;;10.60;5.00;;;;;;;;;;755051;184;812437;-62
2024/03/11 04:03:10;;;;;;;10.87;4.90;;;;;;;;;;752805;186;894784;-60
2024/03/11 04:05:36;;;;;;;7.77;4.73;;;;;;;;;;748492;186;977500;-58
2024/03/11 04:08:02;;;;;;;11.40;5.30;;;;;;;;;;754969;186;917401;-59
2024/03/11 04:10:28;;;;;;;11.27;4.67;;;;;;;;;;749731;186;918455;-60
2024/03/11 04:12:55;;;;;;;12.03;5.33;;;;;;;;;;752548;186;918440;-61
2024/03/11 04:15:21;;;;;;;10.07;5.03;;;;;;;;;;748920;186;918955;-61
2024/03/11 04:17:45;;;;;;;11.90;4.77;;;;;;;;;;752445;186;817259;-61
2024/03/11 04:20:11;;;;;;;12.63;4.93;;;;;;;;;;751067;186;917168;-61
2024/03/11 04:22:38;;;;;;;13.98;5.18;;;;;;;;;;751596;186;919539;-59
2024/03/11 04:25:05;;;;;;;12.17;4.60;;;;;;;;;;759455;186;619039;-61
2024/03/11 04:27:31;;;;;;;9.70;5.17;;;;;;;;;;750334;186;629447;-58
2024/03/11 04:29:56;;;;;;;8.00;4.77;;;;;;;;;;752840;186;818216;-61
2024/03/11 04:32:24;;;;;;;13.10;5.47;;;;;;;;;;756175;186;816928;-61
2024/03/11 04:34:48;;;;;;;10.40;5.20;;;;;;;;;;754826;183;677045;-58
2024/03/11 04:37:14;;;;;;;13.60;4.67;;;;;;;;;;751041;186;912409;-60
2024/03/11 04:39:40;;;;;;;16.77;6.40;;;;;;;;;;750351;184;920220;-59
2024/03/11 04:42:06;;;;;;;12.30;5.07;;;;;;;;;;744218;187;624264;-59
2024/03/11 04:44:31;;;;;;;12.97;5.90;;;;;;;;;;740881;187;634745;-59
2024/03/11 04:46:57;;;;;;;12.30;5.37;;;;;;;;;;749356;187;625002;-59
2024/03/11 04:49:23;;;;;;;8.77;5.00;;;;;;;;;;759866;183;765957;-60
2024/03/11 04:51:49;;;;;;;10.80;4.50;;;;;;;;;;750234;186;915005;-61
2024/03/11 04:54:16;;;;;;;15.50;5.90;;;;;;;;;;752624;183;624181;-64
2024/03/11 04:56:41;;;;;;;10.73;5.30;;;;;;;;;;757736;186;639408;-60
2024/03/11 04:59:08;;;;;;;11.47;4.47;;;;;;;;;;751174;183;914435;-59
2024/03/11 05:01:32;;;;;;;9.70;4.47;;;;;;;;;;749671;184;915716;-58
2024/03/11 05:03:58;;;;;;;9.83;4.50;;;;;;;;;;757069;183;825658;-58
2024/03/11 05:06:24;;;;;;;12.83;4.60;;;;;;;;;;751165;184;916543;-61
2024/03/11 05:08:51;;;;;;;9.50;3.80;;;;;;;;;;747269;186;919288;-61
2024/03/11 05:11:16;;;;;;;9.50;5.00;;;;;;;;;;752974;184;915064;-61
2024/03/11 05:13:42;;;;;;;7.83;5.23;;;;;;;;;;755842;186;922824;-60
2024/03/11 05:16:07;;;;;;;10.20;4.63;;;;;;;;;;752285;186;919951;-61
2024/03/11 05:18:33;;;;;;;17.20;4.73;;;;;;;;;;747283;186;923971;-61
2024/03/11 05:20:59;;;;;;;12.30;5.50;;;;;;;;;;754755;186;921544;-60
2024/03/11 05:23:25;;;;;;;12.70;5.63;;;;;;;;;;749398;184;810160;-58
2024/03/11 05:25:51;;;;;;;14.23;5.60;;;;;;;;;;747827;185;808628;-59
2024/03/11 05:28:17;;;;;;;8.13;3.10;;;;;;;;;;757491;184;832932;-58
2024/03/11 05:30:43;;;;;;;10.87;4.83;;;;;;;;;;751197;186;816156;-59
2024/03/11 05:33:08;;;;;;;12.70;4.73;;;;;;;;;;749999;184;915146;-61
2024/03/11 05:35:34;;;;;;;9.35;5.18;;;;;;;;;;751681;186;815511;-61
2024/03/11 05:38:00;;;;;;;13.47;5.93;;;;;;;;;;758043;186;631964;-59
2024/03/11 05:40:26;;;;;;;9.43;5.50;;;;;;;;;;750796;186;814874;-58
2024/03/11 05:42:52;;;;;;;13.30;4.83;;;;;;;;;;752396;183;883026;-58
2024/03/11 05:45:18;;;;;;;13.17;7.00;;;;;;;;;;757535;183;617638;-59
2024/03/11 05:47:45;;;;;;;11.53;4.70;;;;;;;;;;753941;186;624716;-61
2024/03/11 05:50:09;;;;;;;11.50;6.47;;;;;;;;;;753348;186;713410;-61
2024/03/11 05:52:35;;;;;;;9.33;4.50;;;;;;;;;;759385;186;638665;-61
2024/03/11 05:55:01;;;;;;;10.97;4.67;;;;;;;;;;750246;186;818672;-59
2024/03/11 05:57:29;;;;;;;10.07;5.33;;;;;;;;;;755603;186;626266;-58
2024/03/11 05:59:53;;;;;;;9.83;4.63;;;;;;;;;;749877;186;623950;-61
2024/03/11 06:02:18;;;;;;;12.20;5.20;;;;;;;;;;750554;186;821153;-61
2024/03/11 06:04:45;;;;;;;7.23;4.30;;;;;;;;;;748539;186;918751;-61
2024/03/11 06:07:10;;;;;;;9.40;4.77;;;;;;;;;;750198;186;903046;-58
2024/03/11 06:09:36;;;;;;;35.00;5.70;;;;;;;;;;755287;184;858502;-59
2024/03/11 06:12:03;;;;;;;11.37;4.77;;;;;;;;;;753416;186;858206;-61
2024/03/11 06:14:28;;;;;;;15.13;4.97;;;;;;;;;;750799;185;971245;-58
2024/03/11 06:16:54;;;;;;;11.33;4.63;;;;;;;;;;754299;183;917949;-59
2024/03/11 06:19:20;;;;;;;12.02;4.57;;;;;;;;;;748768;186;924752;-59
2024/03/11 06:21:45;;;;;;;9.83;4.23;;;;;;;;;;749153;185;919054;-59
2024/03/11 06:24:11;;;;;;;15.37;5.10;;;;;;;;;;754248;187;913361;-61
2024/03/11 06:26:37;;;;;;;7.00;4.50;;;;;;;;;;747679;186;917922;-62
2024/03/11 06:29:03;;;;;;;8.07;4.30;;;;;;;;;;747291;186;941367;-61
2024/03/11 06:31:29;;;;;;;12.00;6.10;;;;;;;;;;747591;186;1022430;-61
2024/03/11 06:33:56;;;;;;;8.70;3.90;;;;;;;;;;755205;186;864160;-61
2024/03/11 06:36:22;;;;;;;10.45;4.00;;;;;;;;;;749817;186;918588;-62
2024/03/11 06:38:48;;;;;;;12.20;4.83;;;;;;;;;;750711;183;941716;-61
2024/03/11 06:41:13;;;;;;;5.30;3.43;;;;;;;;;;755572;186;915788;-62
2024/03/11 06:43:39;;;;;;;7.90;4.10;;;;;;;;;;749702;183;919542;-61
2024/03/11 06:46:05;;;;;;;11.10;4.53;;;;;;;;;;751049;186;919475;-60
2024/03/11 06:48:31;;;;;;;9.00;4.20;;;;;;;;;;757817;186;816950;-59
2024/03/11 06:50:57;;;;;;;11.70;4.23;;;;;;;;;;749931;186;818340;-61
2024/03/11 06:53:23;;;;;;;8.30;5.20;;;;;;;;;;747494;186;1021792;-61
2024/03/11 06:55:49;;;;;;;7.07;4.13;;;;;;;;;;747663;183;1020071;-60
2024/03/11 06:58:15;;;;;;;9.97;3.00;;;;;;;;;;754214;186;918359;-61
2024/03/11 07:00:40;;;;;;;10.43;4.03;;;;;;;;;;754194;186;871972;-61
2024/03/11 07:03:07;;;;;;;13.00;5.70;;;;;;;;;;747751;186;906490;-59
2024/03/11 07:05:32;;;;;;;9.90;4.10;;;;;;;;;;756596;186;919821;-58
2024/03/11 07:07:58;;;;;;;14.47;5.13;;;;;;;;;;751636;186;918443;-58
2024/03/11 07:10:24;;;;;;;7.10;4.47;;;;;;;;;;752365;186;860899;-60
2024/03/11 07:12:50;;;;;;;8.63;4.70;;;;;;;;;;754483;184;888641;-59
2024/03/11 07:15:16;;;;;;;9.20;4.10;;;;;;;;;;744188;187;924291;-59
2024/03/11 07:17:42;;;;;;;17.83;5.30;;;;;;;;;;747605;186;919026;-58
2024/03/11 07:20:08;;;;;;;9.02;5.20;;;;;;;;;;749920;186;920993;-59
2024/03/11 07:22:34;;;;;;;11.53;5.37;;;;;;;;;;744120;186;864627;-58
2024/03/11 07:25:00;;;;;;;8.80;5.00;;;;;;;;;;750021;185;919555;-60
2024/03/11 07:27:26;;;;;;;12.53;5.27;;;;;;;;;;751754;186;917991;-60
2024/03/11 07:29:51;;;;;;;9.50;4.33;;;;;;;;;;757320;186;919787;-61
2024/03/11 07:32:18;;;;;;;10.70;4.80;;;;;;;;;;750468;186;917492;-59
2024/03/11 07:34:43;;;;;;;11.20;4.60;;;;;;;;;;751785;186;928004;-59
2024/03/11 07:37:10;;;;;;;9.37;4.87;;;;;;;;;;757982;186;938579;-61
2024/03/11 07:39:36;;;;;;;11.23;4.40;;;;;;;;;;752146;184;908223;-61
2024/03/11 07:42:02;;;;;;;6.87;4.30;;;;;;;;;;748199;185;919489;-59
2024/03/11 07:44:28;;;;;;;13.40;5.70;;;;;;;;;;752910;186;815261;-62
2024/03/11 07:46:54;;;;;;;13.07;4.33;;;;;;;;;;758003;186;817790;-61
2024/03/11 07:49:20;;;;;;;13.57;5.53;;;;;;;;;;752238;186;741379;-59
2024/03/11 07:51:46;;;;;;;21.67;7.00;;;;;;;;;;748976;186;932574;-59
2024/03/11 07:54:11;;;;;;;10.60;4.80;;;;;;;;;;753188;186;915166;-59
2024/03/11 07:56:37;;;;;;;7.83;4.27;;;;;;;;;;741635;186;914380;-59
2024/03/11 07:59:05;;;;;;;8.53;4.97;;;;;;;;;;745617;183;930464;-60
2024/03/11 08:01:29;;;;;;;9.30;4.23;;;;;;;;;;755177;186;817127;-59
2024/03/11 08:03:55;;;;;;;9.20;4.70;;;;;;;;;;750839;185;919115;-62
2024/03/11 08:06:21;;;;;;;9.57;4.00;;;;;;;;;;751968;186;916040;-61
2024/03/11 08:08:46;;;;;;;8.03;5.60;;;;;;;;;;749521;186;916600;-62
2024/03/11 08:11:13;;;;;;;14.30;4.73;;;;;;;;;;756320;183;716446;-59
2024/03/11 08:13:39;;;;;;;9.40;4.00;;;;;;;;;;751478;185;816505;-60
2024/03/11 08:16:05;;;;;;;9.10;4.23;;;;;;;;;;747349;186;917861;-60
2024/03/11 08:18:30;;;;;;;9.00;5.17;;;;;;;;;;737320;188;918456;-62
2024/03/11 08:20:56;;;;;;;9.77;4.60;;;;;;;;;;753681;186;918678;-59
2024/03/11 08:23:22;;;;;;;11.10;5.00;;;;;;;;;;748056;186;922089;-60
2024/03/11 08:25:49;;;;;;;17.20;5.33;;;;;;;;;;753378;186;917356;-59
2024/03/11 08:28:14;;;;;;;14.47;3.87;;;;;;;;;;750379;186;906575;-60
2024/03/11 08:30:39;;;;;;;12.20;5.33;;;;;;;;;;747998;186;919154;-60
2024/03/11 08:33:05;;;;;;;8.67;4.40;;;;;;;;;;756185;185;816824;-61
2024/03/11 08:35:31;;;;;;;14.23;5.23;;;;;;;;;;752582;185;1021112;-63
2024/03/11 08:37:58;;;;;;;14.40;5.30;;;;;;;;;;750164;185;919119;-62
2024/03/11 08:40:23;;;;;;;7.83;4.10;;;;;;;;;;748603;187;919934;-61
2024/03/11 08:42:50;;;;;;;10.17;4.30;;;;;;;;;;754996;186;918458;-59
2024/03/11 08:45:18;;;;;;;9.40;3.90;;;;;;;;;;753495;186;819739;-61
2024/03/11 08:47:45;;;;;;;8.73;4.80;;;;;;;;;;749776;185;919193;-60
2024/03/11 08:50:12;;;;;;;10.40;4.33;;;;;;;;;;755107;186;918639;-60
2024/03/11 08:52:37;;;;;;;9.97;4.73;;;;;;;;;;747205;186;919281;-59
2024/03/11 08:55:05;;;;;;;11.40;4.63;;;;;;;;;;751582;186;884733;-59
2024/03/11 08:57:34;;;;;;;12.53;4.37;;;;;;;;;;749484;184;913671;-60
2024/03/11 09:00:00;;;;;;;7.70;4.80;;;;;;;;;;756468;186;919391;-62
2024/03/11 09:02:27;;;;;;;11.30;5.53;;;;;;;;;;751215;184;820970;-59
2024/03/11 09:04:53;;;;;;;11.10;4.43;;;;;;;;;;753368;186;763704;-61
2024/03/11 09:07:17;;;;;;;12.03;4.70;;;;;;;;;;754797;184;916325;-62
2024/03/11 09:09:43;;;;;;;11.07;5.47;;;;;;;;;;751571;186;918152;-61
2024/03/11 09:12:11;;;;;;;10.67;4.80;;;;;;;;;;749588;183;917821;-61
2024/03/11 09:14:35;;;;;;;9.33;5.20;;;;;;;;;;749263;186;873904;-62
2024/03/11 09:17:01;;;;;;;9.10;5.10;;;;;;;;;;753367;186;919026;-62
2024/03/11 09:19:27;;;;;;;10.80;5.43;;;;;;;;;;751062;186;921912;-63
2024/03/11 09:21:53;;;;;;;10.93;5.20;;;;;;;;;;749345;186;919369;-60
2024/03/11 09:24:20;;;;;;;13.83;6.17;;;;;;;;;;754777;186;858353;-60
2024/03/11 09:26:46;;;;;;;9.40;4.37;;;;;;;;;;746571;186;903998;-59
2024/03/11 09:29:12;;;;;;;9.37;5.67;;;;;;;;;;749451;186;918271;-61
2024/03/11 09:31:38;;;;;;;8.93;4.83;;;;;;;;;;756420;186;919138;-59
2024/03/11 09:34:03;;;;;;;10.57;4.83;;;;;;;;;;749933;186;939578;-59
2024/03/11 09:36:32;;;;;;;9.48;5.70;;;;;;;;;;748369;186;940381;-60
2024/03/11 09:38:58;;;;;;;16.20;4.90;;;;;;;;;;750177;186;921516;-60
2024/03/11 09:41:23;;;;;;;15.57;6.00;;;;;;;;;;753247;186;918889;-61
2024/03/11 09:43:49;;;;;;;10.82;5.10;;;;;;;;;;750992;185;921454;-62
2024/03/11 09:46:15;;;;;;;14.50;5.60;;;;;;;;;;754349;185;825698;-62
2024/03/11 09:48:42;;;;;;;13.27;5.27;;;;;;;;;;759276;183;828023;-60
2024/03/11 09:51:10;;;;;;;12.83;4.93;;;;;;;;;;753486;186;818013;-60
2024/03/11 09:53:33;;;;;;;13.90;5.47;;;;;;;;;;750470;186;943520;-62
2024/03/11 09:55:59;;;;;;;20.67;11.90;;;;;;;;;;754880;186;921359;-62
2024/03/11 09:58:24;;;;;;;8.80;5.20;;;;;;;;;;752509;186;816441;-59
2024/03/11 10:00:55;;;;;;;9.27;4.70;;;;;;;;;;754334;186;812673;-61
2024/03/11 10:03:16;;;;;;;15.20;5.20;;;;;;;;;;752742;186;817098;-61
2024/03/11 10:05:44;;;;;;;10.63;5.03;;;;;;;;;;753042;186;918451;-62
2024/03/11 10:08:09;;;;;;;10.90;5.77;;;;;;;;;;750608;185;898968;-62
2024/03/11 10:10:34;;;;;;;7.20;4.47;;;;;;;;;;750329;186;943786;-62
2024/03/11 10:13:04;;;;;;;7.57;5.10;;;;;;;;;;753266;186;903370;-62
2024/03/11 10:15:28;;;;;;;8.60;4.97;;;;;;;;;;744344;186;887041;-60
2024/03/11 10:17:58;;;;;;;11.90;4.80;;;;;;;;;;750932;186;927183;-62
2024/03/11 10:20:23;;;;;;;12.40;5.83;;;;;;;;;;752232;186;809810;-62
2024/03/11 10:22:48;;;;;;;9.18;4.85;;;;;;;;;;748290;186;855183;-62
2024/03/11 10:25:16;;;;;;;9.20;4.67;;;;;;;;;;750106;186;961419;-67
2024/03/11 10:27:40;;;;;;;7.07;4.30;;;;;;;;;;749189;184;935448;-62
2024/03/11 10:30:12;;;;;;;10.37;4.50;;;;;;;;;;754631;186;922853;-62
2024/03/11 10:32:39;;;;;;;19.80;4.90;;;;;;;;;;749149;186;912088;-63
2024/03/11 10:35:09;;;;;;;8.60;4.30;;;;;;;;;;750421;183;919099;-62
2024/03/11 10:37:31;;;;;;;7.90;4.47;;;;;;;;;;752571;186;945286;-62
2024/03/11 10:40:00;;;;;;;8.93;4.63;;;;;;;;;;752609;186;919134;-62
2024/03/11 10:42:32;;;;;;;8.37;4.63;;;;;;;;;;748526;186;921700;-62
2024/03/11 10:44:55;;;;;;;8.80;4.83;;;;;;;;;;748916;183;920152;-61
2024/03/11 10:47:22;;;;;;;6.83;4.60;;;;;;;;;;755252;186;820270;-63
2024/03/11 10:49:47;;;;;;;7.40;4.60;;;;;;;;;;751525;186;929539;-62
2024/03/11 10:52:14;;;;;;;10.50;5.03;;;;;;;;;;751976;183;912599;-66
2024/03/11 10:54:39;;;;;;;10.43;4.50;;;;;;;;;;750488;186;854884;-60
2024/03/11 10:57:11;;;;;;;10.00;5.17;;;;;;;;;;756072;185;918606;-60
2024/03/11 10:59:31;;;;;;;8.90;5.03;;;;;;;;;;750677;185;715133;-60
2024/03/11 11:01:57;;;;;;;6.83;4.90;;;;;;;;;;752462;186;817275;-61
2024/03/11 11:04:28;;;;;;;7.63;4.40;;;;;;;;;;756561;185;870856;-60
2024/03/11 11:06:48;;;;;;;8.07;4.80;;;;;;;;;;753141;183;896296;-61
2024/03/11 11:09:14;;;;;;;8.23;4.23;;;;;;;;;;751174;186;922215;-63
2024/03/11 11:11:42;;;;;;;9.47;5.30;;;;;;;;;;754431;186;918022;-63
2024/03/11 11:14:11;;;;;;;9.07;4.70;;;;;;;;;;750509;186;920231;-62
2024/03/11 11:16:34;;;;;;;5.50;3.63;;;;;;;;;;750138;186;918725;-60
2024/03/11 11:18:59;;;;;;;10.00;5.07;;;;;;;;;;750591;186;921473;-61
2024/03/11 11:21:29;;;;;;;12.97;4.90;;;;;;;;;;757721;186;937413;-62
2024/03/11 11:23:51;;;;;;;9.97;4.50;;;;;;;;;;747309;184;849312;-63
2024/03/11 11:26:23;;;;;;;7.53;4.40;;;;;;;;;;751226;186;908146;-61
2024/03/11 11:28:50;;;;;;;12.10;4.57;;;;;;;;;;755709;186;907514;-63
2024/03/11 11:31:25;;;;;;;9.37;4.63;;;;;;;;;;747932;183;922209;-63
2024/03/11 11:33:47;;;;;;;7.50;4.87;;;;;;;;;;750415;186;926634;-64
2024/03/11 11:36:15;;;;;;;8.23;4.60;;;;;;;;;;750854;186;914857;-65
2024/03/11 11:38:38;;;;;;;8.40;4.83;;;;;;;;;;753805;185;924691;-61
2024/03/11 11:41:04;;;;;;;7.20;4.80;;;;;;;;;;752200;186;918853;-60
2024/03/11 11:43:37;;;;;;;7.47;4.50;;;;;;;;;;746995;183;902572;-61
2024/03/11 11:46:02;;;;;;;8.27;5.63;;;;;;;;;;750960;186;918818;-60
2024/03/11 11:48:28;;;;;;;10.27;5.70;;;;;;;;;;757381;186;813589;-59
2024/03/11 11:50:58;;;;;;;6.93;5.00;;;;;;;;;;750184;186;923098;-60
2024/03/11 11:53:25;;;;;;;6.33;4.00;;;;;;;;;;753038;186;920558;-60
2024/03/11 11:55:51;;;;;;;14.70;6.13;;;;;;;;;;756794;183;918707;-60
2024/03/11 11:58:16;;;;;;;6.03;4.07;;;;;;;;;;752875;183;863411;-60
2024/03/11 12:00:43;;;;;;;7.80;4.87;;;;;;;;;;750974;186;922307;-60
2024/03/11 12:03:10;;;;;;;7.27;4.87;;;;;;;;;;746450;186;939005;-60
2024/03/11 12:05:36;;;;;;;7.67;4.93;;;;;;;;;;753508;184;919125;-60
2024/03/11 12:08:02;;;;;;;7.57;4.93;;;;;;;;;;755021;184;717424;-60
2024/03/11 12:10:28;;;;;;;9.27;5.53;;;;;;;;;;752172;183;894974;-60
2024/03/11 12:12:54;;;;;;;9.20;4.60;;;;;;;;;;756023;183;819565;-62
2024/03/11 12:15:19;;;;;;;21.80;5.97;;;;;;;;;;751632;183;921796;-59
2024/03/11 12:17:54;;;;;;;10.43;5.70;;;;;;;;;;751435;183;869545;-62
2024/03/11 12:20:30;;;;;;;10.10;7.18;;;;;;;;;;746555;186;906730;-59
2024/03/11 12:22:55;;;;;;;11.00;6.50;;;;;;;;;;753194;186;892551;-62
2024/03/11 12:25:18;;;;;;;11.77;6.47;;;;;;;;;;750870;186;842021;-60
2024/03/11 12:27:44;;;;;;;9.40;6.80;;;;;;;;;;752587;184;816915;-61
2024/03/11 12:30:18;;;;;;;11.40;6.10;;;;;;;;;;749648;185;912946;-61
2024/03/11 12:32:41;;;;;;;11.00;6.20;;;;;;;;;;748446;186;720004;-58
2024/03/11 12:35:12;;;;;;;10.90;6.50;;;;;;;;;;749422;186;913630;-59
2024/03/11 12:37:33;;;;;;;9.20;6.23;;;;;;;;;;752089;184;920382;-58
2024/03/11 12:40:00;;;;;;;13.47;7.20;;;;;;;;;;755440;186;919009;-62
2024/03/11 12:42:27;;;;;;;15.23;7.97;;;;;;;;;;751310;183;846455;-66
2024/03/11 12:44:54;;;;;;;13.30;6.13;;;;;;;;;;750857;186;918911;-61
2024/03/11 12:47:20;;;;;;;10.73;6.60;;;;;;;;;;749977;183;871304;-66
2024/03/11 12:49:48;;;;;;;12.20;6.50;;;;;;;;;;754721;184;918807;-61
2024/03/11 12:52:13;;;;;;;9.37;6.80;;;;;;;;;;747312;183;918496;-62
2024/03/11 12:54:38;;;;;;;10.55;7.03;;;;;;;;;;751318;183;910806;-61
2024/03/11 12:57:05;;;;;;;14.53;6.73;;;;;;;;;;754485;186;920969;-60
2024/03/11 12:59:31;;;;;;;14.87;7.60;;;;;;;;;;753031;183;919776;-60
2024/03/11 13:02:02;;;;;;;12.60;7.62;;;;;;;;;;752521;183;917965;-62
2024/03/11 13:04:28;;;;;;;12.03;6.60;;;;;;;;;;749654;186;877887;-61
2024/03/11 13:06:54;;;;;;;13.50;6.30;;;;;;;;;;753775;186;920105;-62
2024/03/11 13:09:24;;;;;;;11.97;6.57;;;;;;;;;;751388;186;916372;-61
2024/03/11 13:11:54;;;;;;;15.30;6.40;;;;;;;;;;752365;183;818766;-62
2024/03/11 13:14:21;;;;;;;9.37;7.03;;;;;;;;;;751747;184;917581;-62
2024/03/11 13:16:46;;;;;;;12.83;7.57;;;;;;;;;;754522;186;812305;-61
2024/03/11 13:19:12;;;;;;;9.87;6.37;;;;;;;;;;752523;184;917654;-61
2024/03/11 13:21:38;;;;;;;10.93;6.90;;;;;;;;;;753386;185;907152;-61
2024/03/11 13:24:03;;;;;;;8.53;6.47;;;;;;;;;;756706;183;917465;-62
2024/03/11 13:26:29;;;;;;;15.00;7.47;;;;;;;;;;749101;186;921615;-62
2024/03/11 13:28:57;;;;;;;11.20;6.43;;;;;;;;;;748959;183;920684;-61
2024/03/11 13:31:21;;;;;;;10.73;6.60;;;;;;;;;;753241;186;919569;-62
2024/03/11 13:33:47;;;;;;;11.80;7.53;;;;;;;;;;751390;183;918869;-59
2024/03/11 13:36:13;;;;;;;12.13;6.83;;;;;;;;;;751960;186;915097;-59
2024/03/11 13:38:40;;;;;;;18.37;8.30;;;;;;;;;;753791;186;749484;-60
2024/03/11 13:41:06;;;;;;;17.70;7.07;;;;;;;;;;748223;186;920498;-59
2024/03/11 13:43:32;;;;;;;11.67;6.73;;;;;;;;;;748074;186;922117;-62
2024/03/11 13:45:56;;;;;;;11.37;8.10;;;;;;;;;;754359;184;621089;-62
2024/03/11 13:48:24;;;;;;;9.40;7.63;;;;;;;;;;759037;183;624261;-62
2024/03/11 13:50:48;;;;;;;10.57;7.20;;;;;;;;;;754985;184;653403;-59
2024/03/11 13:53:14;;;;;;;12.70;7.40;;;;;;;;;;753744;186;622891;-62
2024/03/11 13:55:40;;;;;;;11.97;8.10;;;;;;;;;;759189;186;622519;-62
2024/03/11 13:58:05;;;;;;;18.50;8.63;;;;;;;;;;752882;186;897267;-59
2024/03/11 14:00:32;;;;;;;24.50;14.60;;;;;;;;;;751868;183;630999;-62
2024/03/11 14:03:01;;;;;;;20.77;13.35;;;;;;;;;;755674;186;618692;-62
2024/03/11 14:05:24;;;;;;;21.00;11.80;;;;;;;;;;751344;186;909422;-59
2024/03/11 14:07:50;;;;;;;19.40;11.07;;;;;;;;;;749533;186;906768;-60
2024/03/11 14:10:16;;;;;;;18.13;11.57;;;;;;;;;;752342;186;941440;-59
2024/03/11 14:12:42;;;;;;;14.43;7.50;;;;;;;;;;757723;186;866300;-61
2024/03/11 14:15:10;;;;;;;10.63;7.30;;;;;;;;;;750971;186;808584;-62